Time;durP1;ratioP1;P1;durP2;ratioP2;P2;SDS_P1;SDS_P2;PMS_P1;PMS_P2;Temp;Humidity;BMP_temperature;BMP_pressure;BME280_temperature;BME280_humidity;BME280_pressure;Samples;Min_cycle;Max_cycle;Signal;HPM_P1;HPM_P2
2022/11/02 00:01:20;;;;;;;16.15;9.77;;;;;;;9.17;73.74;101249.69;5024518;28;20049;-72
2022/11/02 00:03:47;;;;;;;15.13;8.63;;;;;;;9.44;72.47;101251.72;5024479;28;20047;-71
2022/11/02 00:06:13;;;;;;;18.48;9.30;;;;;;;9.25;72.90;101246.34;5025253;28;20443;-71
2022/11/02 00:08:40;;;;;;;13.57;8.80;;;;;;;9.25;72.56;101251.69;5025111;28;20042;-71
2022/11/02 00:11:07;;;;;;;15.05;9.43;;;;;;;9.33;72.21;101243.81;5026765;28;20046;-71
2022/11/02 00:13:33;;;;;;;16.23;7.93;;;;;;;9.12;72.83;101253.75;5024485;28;20073;-71
2022/11/02 00:16:07;;;;;;;12.10;8.15;;;;;;;9.04;73.19;101243.75;5025120;28;20050;-71
2022/11/02 00:18:34;;;;;;;17.27;9.27;;;;;;;9.04;73.34;101257.13;5024980;28;20050;-71
2022/11/02 00:21:01;;;;;;;12.77;8.85;;;;;;;8.91;73.55;101249.34;5024562;28;20049;-72
2022/11/02 00:23:29;;;;;;;13.55;8.27;;;;;;;9.20;72.62;101251.25;5024514;28;20425;-71
2022/11/02 00:25:56;;;;;;;20.83;9.45;;;;;;;8.99;73.15;101246.84;5024822;28;20046;-71
2022/11/02 00:28:27;;;;;;;14.18;8.98;;;;;;;9.04;72.92;101251.75;5025195;28;20056;-71
2022/11/02 00:30:54;;;;;;;11.93;7.88;;;;;;;8.94;73.01;101251.75;5024792;28;20049;-72
2022/11/02 00:33:20;;;;;;;17.45;9.25;;;;;;;8.95;72.55;101247.22;5024478;28;20054;-71
2022/11/02 00:35:47;;;;;;;16.50;8.60;;;;;;;9.11;71.78;101250.22;5024777;28;20415;-71
2022/11/02 00:38:13;;;;;;;19.08;8.70;;;;;;;8.90;72.19;101253.00;5024179;28;20046;-71
2022/11/02 00:40:40;;;;;;;14.23;8.05;;;;;;;8.86;72.28;101251.59;5024316;28;20057;-71
2022/11/02 00:43:06;;;;;;;13.07;7.32;;;;;;;8.78;72.46;101251.41;5024810;28;20046;-70
2022/11/02 00:45:33;;;;;;;16.05;8.05;;;;;;;8.81;72.16;101264.50;5023723;28;20489;-70
2022/11/02 00:48:00;;;;;;;12.82;7.30;;;;;;;8.77;71.88;101255.06;5023750;28;20046;-70
2022/11/02 00:50:27;;;;;;;15.85;7.35;;;;;;;8.55;73.01;101264.97;5022517;28;20061;-72
2022/11/02 00:52:53;;;;;;;17.52;7.90;;;;;;;8.79;71.81;101261.13;5027242;28;20049;-71
2022/11/02 00:55:20;;;;;;;15.10;7.63;;;;;;;8.78;71.78;101259.41;5026884;28;20046;-71
2022/11/02 00:57:47;;;;;;;11.07;7.32;;;;;;;8.70;71.94;101262.78;5026802;28;20053;-72
2022/11/02 01:00:14;;;;;;;15.23;7.60;;;;;;;8.56;72.58;101266.66;5026699;28;20524;-71
2022/11/02 01:02:41;;;;;;;16.88;7.55;;;;;;;8.53;72.23;101263.41;5027200;28;20052;-71
2022/11/02 01:05:09;;;;;;;14.05;6.70;;;;;;;8.68;71.54;101253.19;5027636;28;20188;-71
2022/11/02 01:07:36;;;;;;;11.32;7.18;;;;;;;8.53;71.91;101248.19;5026778;28;20098;-71
2022/11/02 01:10:04;;;;;;;13.75;7.38;;;;;;;8.55;72.09;101254.28;5009879;28;20401;-71
2022/11/02 01:12:31;;;;;;;11.02;6.82;;;;;;;8.51;72.36;101263.56;5027207;28;20052;-71
2022/11/02 01:14:58;;;;;;;16.52;7.25;;;;;;;8.51;71.76;101252.00;5027592;28;20057;-71
2022/11/02 01:17:24;;;;;;;14.30;7.38;;;;;;;8.41;71.95;101251.97;5027566;28;20516;-71
2022/11/02 01:19:50;;;;;;;12.73;7.47;;;;;;;8.34;72.10;101254.31;5009768;28;20414;-72
2022/11/02 01:22:17;;;;;;;10.02;6.95;;;;;;;8.52;71.89;101257.22;5025832;28;20057;-72
2022/11/02 01:24:43;;;;;;;15.90;7.40;;;;;;;8.35;72.28;101257.84;5026635;28;20042;-70
2022/11/02 01:27:10;;;;;;;11.88;7.35;;;;;;;8.31;72.42;101251.06;5027082;28;20053;-72
2022/11/02 01:29:36;;;;;;;13.15;6.88;;;;;;;8.20;72.56;101259.16;5027247;28;20046;-72
2022/11/02 01:32:03;;;;;;;15.57;6.45;;;;;;;8.45;71.64;101261.41;5027187;28;20057;-72
2022/11/02 01:34:29;;;;;;;12.10;6.63;;;;;;;8.41;71.67;101254.63;5028450;28;20056;-72
2022/11/02 01:36:56;;;;;;;10.20;6.85;;;;;;;8.39;71.54;101259.25;5028660;28;20046;-71
2022/11/02 01:39:22;;;;;;;14.77;6.40;;;;;;;8.36;71.70;101254.16;5027607;28;20114;-72
2022/11/02 01:41:52;;;;;;;16.85;5.97;;;;;;;8.32;71.46;101248.25;5027264;28;20050;-70
2022/11/02 01:44:30;;;;;;;10.35;6.15;;;;;;;8.26;71.82;101245.25;5027969;28;20144;-72
2022/11/02 01:47:11;;;;;;;15.70;6.00;;;;;;;8.08;72.02;101237.00;5026896;28;20045;-71
2022/11/02 01:49:42;;;;;;;14.57;6.63;;;;;;;8.15;71.91;101240.84;5028071;28;20520;-70
2022/11/02 01:52:18;;;;;;;9.75;5.78;;;;;;;8.04;71.87;101227.56;5021147;28;20045;-72
2022/11/02 01:55:02;;;;;;;12.48;5.38;;;;;;;8.30;70.78;101233.34;5011938;28;20046;-72
2022/11/02 01:57:32;;;;;;;18.38;5.95;;;;;;;8.20;70.91;101233.28;4995997;28;20057;-72
2022/11/02 02:00:02;;;;;;;9.30;5.05;;;;;;;8.18;70.92;101224.53;5013574;28;20052;-72
2022/11/02 02:02:29;;;;;;;12.40;5.30;;;;;;;7.95;71.05;101231.88;5013179;28;20049;-72
2022/11/02 02:08:49;;;;;;;8.45;5.32;;;;;;;7.88;70.88;101222.66;5012928;28;20044;-72
2022/11/02 02:11:32;;;;;;;10.55;4.80;;;;;;;7.83;70.93;101232.88;5013023;28;20064;-73
2022/11/02 02:14:13;;;;;;;16.27;5.40;;;;;;;8.07;70.16;101228.13;5012972;28;20413;-73
2022/11/02 02:16:58;;;;;;;11.38;4.90;;;;;;;7.87;70.60;101226.31;5013160;28;20506;-71
2022/11/02 02:19:31;;;;;;;12.75;5.05;;;;;;;7.85;70.63;101237.16;5013075;28;20050;-69
2022/11/02 02:22:04;;;;;;;12.32;4.78;;;;;;;7.80;70.66;101228.63;5014164;28;20049;-69
2022/11/02 02:24:36;;;;;;;15.02;5.15;;;;;;;7.83;70.67;101227.53;5014338;28;20049;-71
2022/11/02 02:27:08;;;;;;;17.42;5.07;;;;;;;7.91;70.51;101227.75;5013657;28;20117;-69
2022/11/02 02:29:46;;;;;;;9.50;4.40;;;;;;;7.89;69.90;101227.88;5013847;28;20046;-70
2022/11/02 02:32:35;;;;;;;11.68;4.50;;;;;;;7.80;70.46;101220.59;5013980;28;20049;-71
2022/11/02 02:35:12;;;;;;;8.25;4.32;;;;;;;7.47;70.78;101224.31;5012953;28;20486;-71
2022/11/02 02:37:48;;;;;;;15.30;4.40;;;;;;;7.54;70.93;101216.63;5013487;28;20065;-69
2022/11/02 02:40:21;;;;;;;12.00;4.10;;;;;;;7.71;70.01;101215.19;5013126;28;20061;-71
2022/11/02 02:43:07;;;;;;;10.35;4.07;;;;;;;7.48;70.76;101214.47;5012575;28;20045;-71
2022/11/02 02:45:37;;;;;;;9.48;3.97;;;;;;;7.64;69.92;101215.72;5013817;28;20064;-71
2022/11/02 02:48:19;;;;;;;9.48;4.18;;;;;;;7.64;70.17;101215.72;5013307;28;20445;-69
2022/11/02 02:50:52;;;;;;;8.95;3.50;;;;;;;7.65;69.65;101211.22;5012519;28;20053;-71
2022/11/02 02:53:22;;;;;;;11.02;4.63;;;;;;;7.32;70.76;101210.38;5013175;28;20049;-69
2022/11/02 02:55:49;;;;;;;11.95;3.95;;;;;;;7.57;70.13;101213.69;5013789;28;20046;-70
2022/11/02 02:58:21;;;;;;;8.60;4.03;;;;;;;7.65;69.92;101212.06;5013444;28;20053;-71
2022/11/02 03:00:48;;;;;;;15.02;5.10;;;;;;;7.53;69.52;101210.41;5013441;28;20050;-69
2022/11/02 03:03:18;;;;;;;10.48;4.22;;;;;;;7.44;69.85;101216.56;5013938;28;20045;-72
2022/11/02 03:05:55;;;;;;;10.20;4.10;;;;;;;7.50;70.26;101216.03;5013323;28;20046;-71
2022/11/02 03:08:22;;;;;;;10.75;3.65;;;;;;;7.51;69.56;101216.88;5013276;28;20054;-69
2022/11/02 03:10:56;;;;;;;10.05;3.70;;;;;;;7.32;69.83;101225.56;5012964;28;20056;-70
2022/11/02 03:13:32;;;;;;;12.38;3.40;;;;;;;7.42;69.93;101216.66;5013136;28;20053;-71
2022/11/02 03:16:22;;;;;;;7.90;3.15;;;;;;;7.35;69.96;101211.97;5013067;28;20494;-70
2022/11/02 03:19:18;;;;;;;17.83;3.60;;;;;;;7.22;69.86;101208.63;4963355;28;20046;-71
2022/11/02 03:21:52;;;;;;;8.48;3.85;;;;;;;7.28;69.89;101208.13;5013314;28;20041;-69
2022/11/02 03:24:29;;;;;;;13.32;3.33;;;;;;;7.14;70.37;101212.75;5013607;28;20056;-71
2022/11/02 03:27:36;;;;;;;13.20;3.60;;;;;;;7.14;70.09;101217.25;5012573;28;20041;-71
2022/11/02 03:30:10;;;;;;;8.70;3.28;;;;;;;7.17;70.34;101217.00;5013349;28;20048;-71
2022/11/02 03:32:43;;;;;;;10.82;4.07;;;;;;;7.03;69.88;101218.13;5013043;28;20069;-70
2022/11/02 03:35:27;;;;;;;14.02;3.47;;;;;;;7.03;70.05;101215.47;5013083;28;20049;-70
2022/11/02 03:38:31;;;;;;;9.13;3.13;;;;;;;6.99;70.05;101208.69;5012637;28;20091;-70
2022/11/02 03:41:00;;;;;;;9.45;3.05;;;;;;;7.13;69.88;101210.22;4996172;28;20406;-70
2022/11/02 03:43:27;;;;;;;14.98;3.40;;;;;;;7.08;69.74;101221.25;5012916;28;20046;-70
2022/11/02 03:45:59;;;;;;;14.00;4.00;;;;;;;7.04;69.86;101227.81;5012025;28;20489;-70
2022/11/02 03:48:31;;;;;;;14.15;3.20;;;;;;;7.03;70.09;101217.28;5013193;28;20045;-70
2022/11/02 03:51:02;;;;;;;14.50;3.42;;;;;;;6.94;70.32;101213.53;5012398;28;20414;-69
2022/11/02 03:53:45;;;;;;;;;;;;;;;6.86;70.35;101224.84;5012718;28;20049;-70
2022/11/02 03:56:20;;;;;;;10.18;4.30;;;;;;;7.02;69.78;101213.78;5012929;28;19927;-70
2022/11/02 03:58:46;;;;;;;12.35;3.67;;;;;;;6.61;70.74;101209.13;5013055;28;20042;-69
2022/11/02 04:01:15;;;;;;;17.17;4.20;;;;;;;6.78;70.24;101213.09;5012333;28;20065;-71
2022/11/02 04:03:44;;;;;;;9.88;3.42;;;;;;;6.98;70.00;101216.81;5012757;28;20099;-71
2022/11/02 04:06:11;;;;;;;12.57;3.58;;;;;;;7.00;69.42;101215.72;5012667;28;20045;-71
2022/11/02 04:08:41;;;;;;;15.00;4.13;;;;;;;7.03;69.65;101211.97;5012110;28;20053;-69
2022/11/02 04:16:38;;;;;;;10.82;3.83;;;;;;;7.03;69.29;101207.47;5012341;28;20046;-69
2022/11/02 04:27:20;;;;;;;11.05;3.38;;;;;;;6.87;69.95;101212.34;4995141;28;20046;-70
2022/11/02 04:29:47;;;;;;;13.63;3.60;;;;;;;6.74;70.05;101201.84;4996685;28;20065;-70
2022/11/02 04:32:13;;;;;;;12.82;3.65;;;;;;;6.64;70.66;101207.06;4996467;28;20429;-70
2022/11/02 04:34:40;;;;;;;12.63;3.33;;;;;;;6.66;70.19;101207.75;4996363;28;20053;-69
2022/11/02 04:38:39;;;;;;;10.32;3.38;;;;;;;6.91;69.69;101216.44;4996110;28;20050;-70
2022/11/02 04:39:52;;;;;;;11.68;3.40;;;;;;;6.76;69.97;101217.69;4996227;28;20046;-70
2022/11/02 04:42:19;;;;;;;13.60;3.42;;;;;;;6.74;70.42;101211.63;4996060;28;21802;-70
2022/11/02 04:44:45;;;;;;;11.07;3.42;;;;;;;6.77;69.85;101214.91;4996416;28;20054;-70
2022/11/02 04:47:12;;;;;;;9.88;3.08;;;;;;;6.83;69.91;101218.91;4996257;28;20047;-70
2022/11/02 04:49:38;;;;;;;11.52;3.28;;;;;;;6.77;70.03;101222.06;4996051;28;20053;-70
2022/11/02 04:52:04;;;;;;;8.90;3.25;;;;;;;6.70;70.14;101214.56;4996656;28;20058;-70
2022/11/02 04:54:31;;;;;;;15.40;3.40;;;;;;;6.64;70.28;101215.06;4995620;28;20101;-73
2022/11/02 04:56:57;;;;;;;12.38;3.15;;;;;;;6.65;70.40;101210.56;4996369;28;20046;-71
2022/11/02 04:59:24;;;;;;;14.32;3.17;;;;;;;6.63;70.24;101213.38;4996536;28;20046;-70
2022/11/02 05:01:50;;;;;;;11.00;3.25;;;;;;;6.59;70.14;101216.38;4996447;28;20054;-70
2022/11/02 05:04:17;;;;;;;12.10;3.10;;;;;;;6.58;70.59;101215.53;4997348;28;20058;-70
2022/11/02 05:06:43;;;;;;;11.00;2.55;;;;;;;6.75;69.70;101208.00;4995978;28;20422;-71
2022/11/02 05:09:10;;;;;;;12.23;3.00;;;;;;;6.61;70.14;101214.44;4995302;28;20626;-72
2022/11/02 05:11:36;;;;;;;13.23;3.13;;;;;;;6.67;69.84;101221.97;4995100;28;20057;-72
2022/11/02 05:14:03;;;;;;;15.43;2.83;;;;;;;6.80;69.74;101211.13;4994515;28;20419;-72
2022/11/02 05:16:29;;;;;;;18.42;3.67;;;;;;;6.70;69.88;101211.91;4995295;28;20053;-73
2022/11/02 05:18:56;;;;;;;12.95;3.00;;;;;;;6.60;70.22;101216.28;4995069;28;20069;-71
2022/11/02 05:21:22;;;;;;;19.00;3.03;;;;;;;6.72;69.38;101206.44;4994874;28;20458;-72
2022/11/02 05:23:49;;;;;;;10.27;2.83;;;;;;;6.58;70.13;101212.03;4994894;28;20457;-72
2022/11/02 05:26:15;;;;;;;8.73;2.80;;;;;;;6.75;69.37;101216.84;5006642;28;20548;-72
2022/11/02 05:28:42;;;;;;;12.13;3.30;;;;;;;6.85;69.08;101225.81;5014198;28;20052;-72
2022/11/02 05:31:08;;;;;;;10.45;2.80;;;;;;;6.61;69.83;101217.13;5012828;28;20124;-72
2022/11/02 05:33:35;;;;;;;17.67;4.45;;;;;;;6.73;69.39;101207.28;5014668;28;20053;-74
2022/11/02 05:36:02;;;;;;;8.80;2.67;;;;;;;6.65;69.90;101198.06;5013566;28;20038;-76
2022/11/02 05:38:28;;;;;;;10.00;2.78;;;;;;;6.64;69.81;101203.53;5012211;28;20062;-71
2022/11/02 05:40:57;;;;;;;14.93;3.03;;;;;;;6.59;69.74;101206.56;5013829;28;20046;-72
2022/11/02 05:43:24;;;;;;;17.45;3.25;;;;;;;6.65;69.68;101214.06;5013992;28;20413;-73
2022/11/02 05:45:55;;;;;;;13.15;2.90;;;;;;;6.76;69.19;101215.03;5013297;28;20050;-72
2022/11/02 05:48:23;;;;;;;12.73;3.05;;;;;;;6.51;70.09;101216.16;5013876;28;20057;-72
2022/11/02 05:50:54;;;;;;;17.95;3.60;;;;;;;6.59;69.74;101211.88;5013022;28;20042;-71
2022/11/02 05:53:21;;;;;;;13.52;3.70;;;;;;;6.45;70.08;101201.47;5012667;28;20050;-72
2022/11/02 05:55:47;;;;;;;18.15;3.10;;;;;;;6.34;70.26;101196.16;5013047;28;20057;-72
2022/11/02 05:58:14;;;;;;;15.43;3.75;;;;;;;6.32;70.29;101208.75;5012716;28;20054;-72
2022/11/02 06:00:40;;;;;;;19.65;4.43;;;;;;;6.50;69.89;101206.47;5012631;28;20045;-73
2022/11/02 06:03:07;;;;;;;20.25;3.92;;;;;;;6.41;70.36;101202.69;5013367;28;20049;-72
2022/11/02 06:05:33;;;;;;;17.13;3.50;;;;;;;6.44;70.17;101213.13;5013134;28;20046;-72
2022/11/02 06:08:01;;;;;;;16.45;3.25;;;;;;;6.38;70.39;101210.94;5012669;28;20441;-71
2022/11/02 06:10:29;;;;;;;13.30;2.88;;;;;;;6.23;70.42;101210.28;5012621;28;20061;-72
2022/11/02 06:12:58;;;;;;;10.10;3.00;;;;;;;6.28;70.57;101205.47;5012596;28;20049;-72
2022/11/02 06:15:25;;;;;;;20.08;3.15;;;;;;;6.43;70.21;101204.28;5011446;28;20049;-72
2022/11/02 06:17:52;;;;;;;14.48;3.15;;;;;;;6.43;69.98;101206.09;5012258;28;20504;-72
2022/11/02 06:20:19;;;;;;;15.52;2.92;;;;;;;6.41;70.13;101210.69;5012651;28;20053;-72
2022/11/02 06:22:46;;;;;;;13.75;3.08;;;;;;;6.55;69.79;101215.78;5011241;28;20060;-72
2022/11/02 06:25:13;;;;;;;11.23;2.80;;;;;;;6.49;69.97;101210.91;5010751;28;20054;-71
2022/11/02 06:27:40;;;;;;;15.15;3.08;;;;;;;6.60;69.47;101202.06;5012709;28;20037;-72
2022/11/02 06:30:11;;;;;;;;;;;;;;;6.51;69.86;101206.34;5011319;28;20421;-72
2022/11/02 06:32:37;;;;;;;15.23;2.95;;;;;;;6.43;69.88;101206.94;5011481;28;19947;-71
2022/11/02 06:35:04;;;;;;;18.15;3.25;;;;;;;6.47;70.00;101218.22;5010906;28;20060;-72
2022/11/02 06:37:33;;;;;;;16.50;3.55;;;;;;;6.33;70.31;101216.63;5010932;28;20049;-72
2022/11/02 06:39:59;;;;;;;12.32;2.97;;;;;;;6.46;69.97;101221.84;5010706;28;20046;-72
2022/11/02 06:42:26;;;;;;;16.42;3.38;;;;;;;6.53;69.71;101216.84;5009953;28;20053;-72
2022/11/02 06:44:52;;;;;;;18.05;3.50;;;;;;;6.47;70.07;101228.88;5000156;28;20101;-72
2022/11/02 06:47:19;;;;;;;10.32;3.20;;;;;;;6.57;69.56;101237.84;5010155;28;20069;-72
2022/11/02 06:49:45;;;;;;;14.75;3.03;;;;;;;6.62;69.87;101232.97;5010680;28;20076;-72
2022/11/02 06:52:12;;;;;;;12.07;3.22;;;;;;;6.60;69.82;101228.72;5013119;28;20053;-72
2022/11/02 06:54:38;;;;;;;18.58;3.85;;;;;;;6.66;69.65;101230.91;5009734;28;20073;-72
2022/11/02 06:57:05;;;;;;;13.05;4.25;;;;;;;6.73;69.46;101233.94;5009099;28;20042;-73
2022/11/02 06:59:32;;;;;;;16.73;3.80;;;;;;;6.54;70.13;101235.41;5008023;28;20057;-72
2022/11/02 07:01:59;;;;;;;16.63;4.30;;;;;;;6.71;69.92;101234.06;5010698;28;20128;-72
2022/11/02 07:04:25;;;;;;;19.15;4.13;;;;;;;6.69;69.96;101244.84;4991493;28;20057;-72
2022/11/02 07:06:52;;;;;;;13.88;3.70;;;;;;;6.80;69.46;101240.47;5010070;28;20052;-75
2022/11/02 07:09:19;;;;;;;14.57;4.43;;;;;;;6.71;69.77;101237.59;5009585;28;20049;-72
2022/11/02 07:11:45;;;;;;;20.73;3.80;;;;;;;6.83;69.84;101234.91;5008823;28;20054;-72
2022/11/02 07:14:12;;;;;;;15.35;3.17;;;;;;;6.74;69.87;101241.84;5011100;28;20108;-72
2022/11/02 07:16:39;;;;;;;14.55;3.60;;;;;;;6.93;69.22;101244.69;5008762;28;20042;-72
2022/11/02 07:19:05;;;;;;;23.08;3.83;;;;;;;6.91;69.55;101245.78;5010788;28;20042;-72
2022/11/02 07:21:32;;;;;;;16.15;3.58;;;;;;;6.86;69.88;101240.84;5007860;28;20414;-72
2022/11/02 07:23:59;;;;;;;14.00;4.15;;;;;;;6.90;69.69;101247.63;5010999;28;20046;-72
2022/11/02 07:26:26;;;;;;;29.20;5.88;;;;;;;7.06;69.44;101241.91;5008501;28;20053;-72
2022/11/02 07:28:52;;;;;;;21.08;4.38;;;;;;;7.13;69.52;101234.25;5009607;28;20042;-72
2022/11/02 07:31:23;;;;;;;15.73;5.15;;;;;;;7.17;69.70;101236.53;5008670;28;20050;-72
2022/11/02 07:33:50;;;;;;;15.68;3.50;;;;;;;7.38;68.84;101238.41;5009956;28;20042;-72
2022/11/02 07:36:16;;;;;;;15.43;3.67;;;;;;;7.30;69.21;101248.88;5008570;28;20521;-71
2022/11/02 07:38:43;;;;;;;14.80;4.15;;;;;;;7.49;68.64;101241.03;5011352;28;20128;-73
2022/11/02 07:41:09;;;;;;;10.18;3.33;;;;;;;7.59;67.88;101252.63;5010490;28;20058;-73
2022/11/02 07:43:36;;;;;;;19.13;3.85;;;;;;;7.59;67.98;101254.47;5004580;28;20050;-73
2022/11/02 07:46:10;;;;;;;16.05;3.78;;;;;;;7.86;67.10;101256.69;5010971;28;20077;-73
2022/11/02 07:48:37;;;;;;;16.52;3.28;;;;;;;7.85;67.38;101257.66;4992286;28;20045;-73
2022/11/02 07:51:05;;;;;;;13.75;2.88;;;;;;;8.32;65.89;101248.25;5010012;28;20516;-72
2022/11/02 07:53:33;;;;;;;16.92;3.03;;;;;;;8.40;65.56;101254.75;5009556;28;20132;-72
2022/11/02 07:56:00;;;;;;;14.55;3.63;;;;;;;8.37;65.62;101248.72;5009281;28;20076;-73
2022/11/02 07:58:26;;;;;;;11.73;2.72;;;;;;;8.49;65.42;101249.47;5008361;28;20050;-72
2022/11/02 08:00:59;;;;;;;24.13;3.15;;;;;;;8.91;64.05;101254.69;5009485;28;20053;-73
2022/11/02 08:03:27;;;;;;;23.15;3.17;;;;;;;8.68;64.61;101250.50;5010239;28;20053;-72
2022/11/02 08:05:54;;;;;;;16.48;2.67;;;;;;;8.55;64.88;101264.97;5009332;28;20037;-72
2022/11/02 08:08:23;;;;;;;15.13;2.78;;;;;;;8.77;64.27;101257.75;5009505;28;20045;-72
2022/11/02 08:10:51;;;;;;;12.57;2.85;;;;;;;8.81;64.44;101256.47;5010096;28;20050;-72
2022/11/02 08:13:21;;;;;;;13.38;2.88;;;;;;;8.89;64.49;101259.34;4985989;28;20098;-72
2022/11/02 08:15:49;;;;;;;14.68;2.95;;;;;;;8.84;64.37;101253.53;5005353;28;20061;-73
2022/11/02 08:18:18;;;;;;;14.63;2.83;;;;;;;9.25;63.24;101241.00;5009133;28;20497;-72
2022/11/02 08:20:46;;;;;;;17.75;3.28;;;;;;;9.18;63.10;101248.69;5010251;28;20049;-72
2022/11/02 08:23:18;;;;;;;20.15;3.53;;;;;;;9.04;63.33;101244.59;5009793;28;20425;-72
2022/11/02 08:25:46;;;;;;;11.23;2.92;;;;;;;9.44;62.78;101246.38;5008466;28;20072;-72
2022/11/02 08:28:22;;;;;;;14.43;3.53;;;;;;;9.26;63.61;101253.38;5004419;28;20053;-72
2022/11/02 08:30:49;;;;;;;19.05;3.47;;;;;;;9.26;63.53;101259.56;5009848;28;20042;-73
2022/11/02 08:33:18;;;;;;;13.50;2.65;;;;;;;9.21;63.20;101251.09;5010478;28;20050;-72
2022/11/02 08:35:45;;;;;;;14.60;2.90;;;;;;;9.12;63.82;101264.47;5004506;28;20041;-72
2022/11/02 08:38:12;;;;;;;13.32;2.88;;;;;;;9.17;63.99;101259.56;5009708;28;20050;-72
2022/11/02 08:40:39;;;;;;;13.10;2.95;;;;;;;9.29;63.80;101258.47;5010004;28;20046;-72
2022/11/02 08:43:09;;;;;;;10.80;3.10;;;;;;;9.51;63.12;101263.56;5008419;28;20054;-72
2022/11/02 08:45:37;;;;;;;13.98;2.80;;;;;;;9.35;63.63;101257.06;5002111;28;20504;-72
2022/11/02 08:48:24;;;;;;;11.07;2.40;;;;;;;9.24;64.00;101258.03;5008910;28;20049;-72
2022/11/02 08:50:51;;;;;;;18.00;3.58;;;;;;;9.27;64.01;101253.25;5009516;28;20049;-72
2022/11/02 08:53:17;;;;;;;19.38;3.60;;;;;;;9.06;64.56;101258.69;5009682;28;20049;-72
2022/11/02 08:55:44;;;;;;;13.07;3.00;;;;;;;9.40;63.81;101255.66;5010796;28;20409;-72
2022/11/02 08:58:10;;;;;;;17.60;3.28;;;;;;;9.28;64.18;101262.13;5005828;28;20050;-72
2022/11/02 09:00:37;;;;;;;23.77;4.85;;;;;;;9.26;63.90;101261.41;5009591;28;20050;-72
2022/11/02 09:03:06;;;;;;;15.90;3.30;;;;;;;9.54;63.63;101263.31;5005607;28;20045;-73
2022/11/02 09:05:36;;;;;;;15.25;2.70;;;;;;;10.08;61.91;101257.47;5009862;28;20161;-72
2022/11/02 09:08:05;;;;;;;13.30;2.90;;;;;;;10.02;62.12;101254.38;5009945;28;20469;-72
2022/11/02 09:10:34;;;;;;;16.70;2.63;;;;;;;10.56;60.61;101254.69;5009779;28;20050;-72
2022/11/02 09:13:02;;;;;;;14.50;3.17;;;;;;;10.45;60.89;101252.16;5011871;28;20056;-72
2022/11/02 09:15:32;;;;;;;13.02;2.30;;;;;;;11.25;58.85;101258.72;5012062;28;20046;-73
2022/11/02 09:17:59;;;;;;;18.77;3.10;;;;;;;11.56;57.35;101259.19;5013701;28;20045;-73
2022/11/02 09:20:25;;;;;;;17.05;2.78;;;;;;;12.27;55.12;101255.56;5013539;28;20046;-72
2022/11/02 09:22:52;;;;;;;17.95;2.95;;;;;;;12.30;54.57;101263.31;5013288;28;20048;-72
2022/11/02 09:25:18;;;;;;;16.73;2.65;;;;;;;12.53;53.71;101263.66;5013253;28;20056;-72
2022/11/02 09:27:45;;;;;;;13.70;2.63;;;;;;;12.92;52.97;101257.78;5013734;28;20121;-74
2022/11/02 09:30:14;;;;;;;9.60;1.98;;;;;;;13.29;52.23;101260.09;5011993;28;20050;-72
2022/11/02 09:32:41;;;;;;;13.05;2.63;;;;;;;14.06;49.90;101259.84;5013162;28;20046;-72
2022/11/02 09:35:10;;;;;;;13.38;2.50;;;;;;;14.13;49.50;101270.81;5013004;28;20061;-72
2022/11/02 09:37:37;;;;;;;13.68;2.28;;;;;;;14.69;47.89;101272.53;5012991;28;20056;-73
2022/11/02 09:40:05;;;;;;;15.93;3.08;;;;;;;14.64;47.81;101274.09;5013096;28;20050;-72
2022/11/02 09:42:42;;;;;;;18.60;2.80;;;;;;;15.34;46.22;101270.56;5013284;28;20048;-72
2022/11/02 09:45:15;;;;;;;15.13;2.97;;;;;;;15.25;46.72;101277.88;5012386;28;20050;-72
2022/11/02 09:48:01;;;;;;;11.82;2.38;;;;;;;14.91;46.89;101283.59;5013114;28;20049;-72
2022/11/02 09:50:55;;;;;;;15.48;2.67;;;;;;;14.69;47.02;101277.09;5011758;28;20050;-73
2022/11/02 09:53:39;;;;;;;20.63;3.22;;;;;;;14.58;47.27;101272.91;5012769;28;20395;-73
2022/11/02 09:56:07;;;;;;;15.63;2.53;;;;;;;14.94;46.31;101275.16;5012611;28;20546;-72
2022/11/02 09:58:38;;;;;;;10.80;2.20;;;;;;;14.85;45.75;101284.34;5011984;28;20060;-73
2022/11/02 10:01:27;;;;;;;24.80;2.90;;;;;;;15.41;44.47;101274.25;5012439;28;20045;-72
2022/11/02 10:03:53;;;;;;;21.35;5.15;;;;;;;15.23;45.07;101277.22;5012447;28;20068;-73
2022/11/02 10:06:24;;;;;;;16.92;3.13;;;;;;;14.92;45.29;101279.91;5013288;28;20464;-72
2022/11/02 10:08:56;;;;;;;13.07;3.33;;;;;;;14.86;45.44;101280.59;5011869;28;20049;-73
2022/11/02 10:12:02;;;;;;;14.23;2.85;;;;;;;15.18;44.46;101275.03;5012495;28;20606;-72
2022/11/02 10:14:34;;;;;;;21.27;2.85;;;;;;;15.75;43.58;101281.16;5011577;28;20485;-73
2022/11/02 10:17:12;;;;;;;18.38;3.70;;;;;;;15.49;43.76;101276.88;5012887;28;20057;-73
2022/11/02 10:19:40;;;;;;;18.63;2.90;;;;;;;16.05;43.39;101277.50;5011946;28;20042;-73
2022/11/02 10:22:11;;;;;;;15.23;2.83;;;;;;;16.26;42.35;101287.63;5011253;28;20045;-73
2022/11/02 10:24:42;;;;;;;12.80;2.80;;;;;;;16.02;42.67;101282.44;5007294;28;20049;-73
2022/11/02 10:27:28;;;;;;;16.42;3.00;;;;;;;15.62;43.44;101287.13;5011369;28;20072;-74
2022/11/02 10:30:02;;;;;;;20.80;3.22;;;;;;;15.86;43.08;101284.25;5001490;28;20106;-73
2022/11/02 10:32:30;;;;;;;14.98;2.30;;;;;;;15.21;43.85;101288.19;5010577;28;20417;-73
2022/11/02 10:35:00;;;;;;;20.65;2.80;;;;;;;15.61;43.33;101289.00;5008137;28;20045;-73
2022/11/02 10:38:01;;;;;;;16.95;3.40;;;;;;;15.46;43.67;101293.47;5010159;28;20050;-73
2022/11/02 10:40:53;;;;;;;43.80;5.05;;;;;;;15.49;43.28;101283.13;5010500;28;20125;-73
2022/11/02 10:43:57;;;;;;;23.83;3.97;;;;;;;15.81;42.76;101275.88;5011883;28;20413;-74
2022/11/02 10:46:41;;;;;;;16.73;2.85;;;;;;;16.17;42.07;101289.56;5010054;28;20441;-73
2022/11/02 10:49:47;;;;;;;14.35;2.85;;;;;;;16.48;41.21;101291.31;5011113;28;20493;-73
2022/11/02 10:52:16;;;;;;;13.15;2.28;;;;;;;16.29;41.91;101284.53;5010174;28;20038;-73
2022/11/02 10:54:42;;;;;;;13.48;2.33;;;;;;;16.16;41.27;101290.63;5011551;28;20050;-74
2022/11/02 10:57:11;;;;;;;12.70;3.22;;;;;;;16.42;40.71;101292.03;5006321;28;20494;-73
2022/11/02 10:59:38;;;;;;;17.95;3.05;;;;;;;15.88;41.41;101293.06;5011043;28;20050;-73
2022/11/02 11:02:13;;;;;;;11.70;2.60;;;;;;;16.48;40.23;101299.44;5010253;28;20045;-73
2022/11/02 11:04:41;;;;;;;15.30;2.78;;;;;;;15.75;41.31;101292.81;5010465;28;20045;-73
2022/11/02 11:07:25;;;;;;;17.58;2.20;;;;;;;16.36;40.62;101300.91;5010331;28;20044;-73
2022/11/02 11:09:56;;;;;;;16.13;2.78;;;;;;;16.42;39.97;101311.00;4992196;28;20086;-73
2022/11/02 11:12:30;;;;;;;18.75;2.83;;;;;;;16.54;39.53;101306.00;5009926;28;20050;-73
2022/11/02 11:15:01;;;;;;;9.40;2.20;;;;;;;16.42;40.00;101313.72;5009823;28;20457;-73
2022/11/02 11:17:49;;;;;;;69.10;6.00;;;;;;;15.46;41.78;101309.69;5010898;28;20457;-73
2022/11/02 11:20:38;;;;;;;14.75;2.53;;;;;;;14.46;43.29;101317.47;5007000;28;20046;-73
2022/11/02 11:23:14;;;;;;;31.80;3.85;;;;;;;14.08;44.44;101297.44;5010763;28;20042;-73
2022/11/02 11:25:41;;;;;;;17.38;3.15;;;;;;;14.13;44.99;101313.97;5009906;28;20049;-72
2022/11/02 11:28:51;;;;;;;15.60;3.03;;;;;;;13.77;45.61;101298.97;5009622;28;20367;-73
2022/11/02 11:31:18;;;;;;;16.08;2.42;;;;;;;14.02;45.07;101316.00;4994332;28;20045;-72
2022/11/02 11:33:51;;;;;;;20.92;2.97;;;;;;;13.87;45.55;101312.25;5010193;28;20083;-72
2022/11/02 11:36:43;;;;;;;12.43;2.42;;;;;;;13.87;45.34;101314.97;5003897;28;20042;-73
2022/11/02 11:39:26;;;;;;;13.60;2.47;;;;;;;13.92;45.91;101303.69;5006222;28;20512;-73
2022/11/02 11:41:54;;;;;;;18.20;3.15;;;;;;;13.50;46.62;101310.00;5009311;28;20489;-73
2022/11/02 11:44:21;;;;;;;20.38;3.13;;;;;;;13.53;46.76;101315.91;5009324;28;20045;-72
2022/11/02 11:47:10;;;;;;;19.58;2.80;;;;;;;13.51;46.88;101311.69;5129286;23;20065;-72
2022/11/02 11:49:47;;;;;;;18.65;2.50;;;;;;;13.60;47.02;101310.72;5020493;28;20042;-71
2022/11/02 11:52:33;;;;;;;15.38;2.58;;;;;;;13.73;46.81;101300.25;4996863;28;20050;-72
2022/11/02 11:55:17;;;;;;;14.48;2.75;;;;;;;14.02;46.46;101299.81;5003090;28;20046;-72
2022/11/02 11:57:44;;;;;;;12.68;2.67;;;;;;;13.98;46.77;101301.16;5032976;28;20037;-73
2022/11/02 12:00:26;;;;;;;14.00;3.50;;;;;;;14.05;46.56;101299.47;5014521;28;20516;-74